Time;durP1;ratioP1;P1;durP2;ratioP2;P2;SDS_P1;SDS_P2;PMS_P1;PMS_P2;Temp;Humidity;BMP_temperature;BMP_pressure;BME280_temperature;BME280_humidity;BME280_pressure;Samples;Min_cycle;Max_cycle;Signal;HPM_P1;HPM_P2
2023/05/07 00:00:48;;;;;;;9.33;7.93;;;15.80;99.90;;;;;;5036074;28;20482;-81
2023/05/07 00:03:15;;;;;;;7.67;6.80;;;15.80;99.90;;;;;;5035385;28;20449;-80
2023/05/07 00:05:42;;;;;;;7.20;6.50;;;15.90;99.90;;;;;;5035249;28;20468;-82
2023/05/07 00:08:09;;;;;;;8.03;6.57;;;15.80;99.90;;;;;;5035839;28;20492;-81
2023/05/07 00:10:37;;;;;;;7.87;6.40;;;15.80;99.90;;;;;;5033204;28;20482;-83
2023/05/07 00:13:04;;;;;;;6.40;5.77;;;15.80;99.90;;;;;;5035573;28;20847;-82
2023/05/07 00:15:30;;;;;;;6.80;6.10;;;15.80;99.90;;;;;;5035008;28;20460;-79
2023/05/07 00:17:59;;;;;;;7.53;6.73;;;15.80;99.90;;;;;;5035271;28;20492;-80
2023/05/07 00:20:26;;;;;;;8.17;7.07;;;15.80;99.90;;;;;;5046903;28;20921;-78
2023/05/07 00:22:52;;;;;;;8.97;6.50;;;15.80;99.90;;;;;;5044417;28;20457;-81
2023/05/07 00:25:20;;;;;;;7.03;6.33;;;15.80;99.90;;;;;;5035479;28;20968;-79
2023/05/07 00:27:48;;;;;;;7.50;6.73;;;15.80;99.90;;;;;;5034869;28;20457;-81
2023/05/07 00:30:15;;;;;;;8.37;7.47;;;15.80;99.90;;;;;;5065363;22;20482;-81
2023/05/07 00:32:42;;;;;;;8.00;6.37;;;15.80;99.90;;;;;;5035208;28;20457;-82
2023/05/07 00:35:09;;;;;;;8.10;7.30;;;15.80;99.90;;;;;;5036348;28;20458;-81
2023/05/07 00:37:36;;;;;;;8.33;7.50;;;15.80;99.90;;;;;;5034905;28;20499;-81
2023/05/07 00:40:06;;;;;;;7.27;6.57;;;15.70;99.90;;;;;;5036628;28;20460;-81
2023/05/07 00:42:33;;;;;;;9.00;7.87;;;15.70;99.90;;;;;;5016144;28;20460;-81
2023/05/07 00:45:02;;;;;;;12.53;7.87;;;15.70;99.90;;;;;;5016157;28;20560;-82
2023/05/07 00:47:29;;;;;;;9.07;7.83;;;15.80;99.90;;;;;;5021165;28;20502;-81
2023/05/07 00:49:57;;;;;;;10.60;8.17;;;15.80;99.90;;;;;;4997450;28;20461;-82
2023/05/07 00:52:27;;;;;;;8.80;7.30;;;15.80;99.90;;;;;;5011910;28;20458;-80
2023/05/07 00:54:54;;;;;;;9.37;8.47;;;15.80;99.90;;;;;;5017123;28;20446;-82
2023/05/07 00:57:22;;;;;;;10.53;9.43;;;15.70;99.90;;;;;;5015855;28;20486;-81
2023/05/07 00:59:49;;;;;;;11.47;10.10;;;15.70;99.90;;;;;;5012699;28;20450;-79
2023/05/07 01:02:18;;;;;;;10.07;8.80;;;15.70;99.90;;;;;;5015602;28;20474;-82
2023/05/07 01:04:45;;;;;;;9.90;8.93;;;15.70;99.90;;;;;;5016512;28;20462;-82
2023/05/07 01:07:12;;;;;;;10.00;9.07;;;15.60;99.90;;;;;;5016782;28;20973;-80
2023/05/07 01:09:39;;;;;;;10.10;9.10;;;15.60;99.90;;;;;;5015914;28;20470;-82
2023/05/07 01:12:07;;;;;;;10.50;9.40;;;15.60;99.90;;;;;;5022960;28;20484;-81
2023/05/07 01:14:35;;;;;;;12.00;10.83;;;15.60;99.90;;;;;;5031959;28;20946;-82
2023/05/07 01:17:01;;;;;;;10.27;9.30;;;15.60;99.90;;;;;;5036278;28;20514;-82
2023/05/07 01:19:31;;;;;;;11.50;10.30;;;15.60;99.90;;;;;;5019560;28;20461;-81
2023/05/07 01:22:04;;;;;;;13.50;12.13;;;15.60;99.90;;;;;;5005130;28;20892;-82
2023/05/07 01:24:32;;;;;;;10.23;9.23;;;15.50;99.90;;;;;;4997449;28;20830;-80
2023/05/07 01:27:01;;;;;;;13.03;11.33;;;15.50;99.90;;;;;;5011083;28;20489;-81
2023/05/07 01:29:28;;;;;;;13.57;11.87;;;15.50;99.90;;;;;;5020084;28;20938;-82
2023/05/07 01:31:55;;;;;;;11.67;10.50;;;15.60;99.90;;;;;;5018728;28;20571;-82
2023/05/07 01:34:23;;;;;;;12.50;11.40;;;15.60;99.90;;;;;;5019281;28;20452;-82
2023/05/07 01:36:50;;;;;;;12.60;10.93;;;15.50;99.90;;;;;;5014823;28;20478;-81
2023/05/07 01:39:17;;;;;;;15.63;11.17;;;15.50;99.90;;;;;;5036801;28;20542;-81
2023/05/07 01:41:46;;;;;;;13.07;10.77;;;15.50;99.90;;;;;;5017847;28;20480;-81
2023/05/07 01:44:14;;;;;;;13.30;11.97;;;15.50;99.90;;;;;;5015720;28;20459;-82
2023/05/07 01:46:41;;;;;;;12.67;11.37;;;15.50;99.90;;;;;;5023430;28;20466;-81
2023/05/07 01:49:08;;;;;;;12.60;11.37;;;15.50;99.90;;;;;;5019100;28;20458;-82
2023/05/07 01:51:36;;;;;;;11.83;10.70;;;15.50;99.90;;;;;;5015395;28;20998;-82
2023/05/07 01:54:03;;;;;;;14.67;12.03;;;15.60;99.90;;;;;;5000047;28;20468;-82
2023/05/07 01:56:30;;;;;;;13.37;12.00;;;15.50;99.90;;;;;;5003654;28;20468;-82
2023/05/07 01:58:58;;;;;;;12.67;11.43;;;15.60;99.90;;;;;;5005716;28;20482;-81
2023/05/07 02:01:25;;;;;;;13.47;12.20;;;15.60;99.90;;;;;;5002250;28;20479;-81
2023/05/07 02:03:51;;;;;;;12.40;11.20;;;15.60;99.90;;;;;;5019312;28;20491;-82
2023/05/07 02:06:19;;;;;;;15.53;12.37;;;15.50;99.90;;;;;;5019353;28;20911;-81
2023/05/07 02:08:46;;;;;;;14.50;11.60;;;15.50;99.90;;;;;;5012280;28;20465;-82
2023/05/07 02:11:13;;;;;;;12.20;10.90;;;15.50;99.90;;;;;;5019989;28;20476;-81
2023/05/07 02:13:39;;;;;;;13.63;12.30;;;15.50;99.90;;;;;;5018648;28;20462;-81
2023/05/07 02:16:08;;;;;;;14.13;12.80;;;15.40;99.90;;;;;;5020343;28;20487;-80
2023/05/07 02:18:35;;;;;;;14.23;12.83;;;15.30;99.90;;;;;;5011781;28;20496;-81
2023/05/07 02:21:02;;;;;;;14.60;13.00;;;15.40;99.90;;;;;;5018449;28;20562;-81
2023/05/07 02:23:29;;;;;;;15.83;14.27;;;15.30;99.90;;;;;;5022909;28;20464;-80
2023/05/07 02:25:55;;;;;;;13.70;12.30;;;15.30;99.90;;;;;;5031707;28;20993;-82
2023/05/07 02:28:22;;;;;;;11.97;10.87;;;15.40;99.90;;;;;;5019715;28;20959;-82
2023/05/07 02:30:49;;;;;;;12.63;11.33;;;15.30;99.90;;;;;;5005580;28;20559;-79
2023/05/07 02:33:17;;;;;;;14.03;12.70;;;15.30;99.90;;;;;;5004121;28;20442;-82
2023/05/07 02:35:44;;;;;;;12.50;11.20;;;15.30;99.90;;;;;;5000376;28;20999;-82
2023/05/07 02:38:11;;;;;;;13.67;12.30;;;15.30;99.90;;;;;;5005881;28;20496;-82
2023/05/07 02:40:39;;;;;;;15.10;12.20;;;15.30;99.90;;;;;;5018312;28;21047;-81
2023/05/07 02:43:06;;;;;;;12.50;11.30;;;15.30;99.90;;;;;;5018276;28;20492;-81
2023/05/07 02:45:33;;;;;;;12.77;11.50;;;15.30;99.90;;;;;;5016994;28;20460;-81
2023/05/07 02:48:00;;;;;;;11.90;10.70;;;15.20;99.90;;;;;;5000067;28;20513;-80
2023/05/07 02:50:28;;;;;;;12.60;11.27;;;15.20;99.90;;;;;;4999202;28;20513;-81
2023/05/07 02:52:55;;;;;;;12.57;11.27;;;15.20;99.90;;;;;;5003235;28;20458;-82
2023/05/07 02:55:22;;;;;;;13.47;12.00;;;15.20;99.90;;;;;;5018070;28;20457;-82
2023/05/07 02:57:48;;;;;;;13.03;11.83;;;15.20;99.90;;;;;;5001466;28;20491;-81
2023/05/07 03:00:17;;;;;;;13.50;12.07;;;15.20;99.90;;;;;;5019139;28;20453;-82
2023/05/07 03:02:44;;;;;;;13.00;11.70;;;15.10;99.90;;;;;;5017734;28;20544;-81
2023/05/07 03:05:11;;;;;;;12.80;11.50;;;15.10;99.90;;;;;;5020332;28;20465;-81
2023/05/07 03:07:40;;;;;;;13.30;12.00;;;15.10;99.90;;;;;;5000659;28;20986;-81
2023/05/07 03:10:08;;;;;;;12.57;11.37;;;15.10;99.90;;;;;;5001746;28;20553;-81
2023/05/07 03:12:35;;;;;;;12.90;11.37;;;15.00;99.90;;;;;;5000701;28;20489;-82
2023/05/07 03:15:02;;;;;;;12.87;11.70;;;15.00;99.90;;;;;;5019309;28;20454;-82
2023/05/07 03:17:29;;;;;;;14.67;13.20;;;15.00;99.90;;;;;;5002528;28;20618;-81
2023/05/07 03:19:55;;;;;;;14.40;13.00;;;15.00;99.90;;;;;;5001099;28;20450;-82
2023/05/07 03:22:22;;;;;;;14.00;12.33;;;15.00;99.90;;;;;;4999469;28;20565;-82
2023/05/07 03:24:50;;;;;;;14.10;11.60;;;15.00;99.90;;;;;;5015157;28;20962;-80
2023/05/07 03:27:17;;;;;;;13.67;12.47;;;14.90;99.90;;;;;;5003037;28;20465;-81
2023/05/07 03:29:44;;;;;;;14.40;12.67;;;15.00;99.90;;;;;;4999504;28;20470;-82
2023/05/07 03:32:11;;;;;;;13.77;12.37;;;15.00;99.90;;;;;;5016781;28;20923;-82
2023/05/07 03:34:38;;;;;;;15.07;13.57;;;14.90;99.90;;;;;;5019357;28;20456;-81
2023/05/07 03:37:04;;;;;;;14.67;13.17;;;15.00;99.90;;;;;;5004802;28;20819;-82
2023/05/07 03:39:31;;;;;;;14.13;12.70;;;15.00;99.90;;;;;;4997899;28;20545;-81
2023/05/07 03:42:00;;;;;;;15.50;13.97;;;14.90;99.90;;;;;;4998801;28;20513;-82
2023/05/07 03:44:27;;;;;;;13.97;12.47;;;14.90;99.90;;;;;;5006985;28;20512;-82
2023/05/07 03:46:54;;;;;;;16.20;14.70;;;14.90;99.90;;;;;;5018550;28;20457;-82
2023/05/07 03:49:20;;;;;;;14.23;12.93;;;14.90;99.90;;;;;;5008434;28;20459;-82
2023/05/07 03:51:47;;;;;;;14.50;12.97;;;14.90;99.90;;;;;;4997884;28;21025;-82
2023/05/07 03:54:14;;;;;;;14.37;12.93;;;14.90;99.90;;;;;;5015391;28;20457;-80
2023/05/07 03:56:41;;;;;;;18.80;14.20;;;14.80;99.90;;;;;;5018274;28;20560;-81
2023/05/07 03:59:09;;;;;;;15.97;14.37;;;14.80;99.90;;;;;;5012513;28;20512;-81
2023/05/07 04:01:36;;;;;;;17.27;15.50;;;14.70;99.90;;;;;;4998654;28;20476;-81
2023/05/07 04:04:04;;;;;;;18.03;15.73;;;14.80;99.90;;;;;;5002338;28;20447;-78
2023/05/07 04:06:30;;;;;;;17.10;15.50;;;14.80;99.90;;;;;;5005204;28;20446;-79
2023/05/07 04:08:57;;;;;;;17.10;15.27;;;14.80;99.90;;;;;;5006849;28;20541;-80
2023/05/07 04:11:24;;;;;;;18.33;15.10;;;14.70;99.90;;;;;;5020644;28;20477;-81
2023/05/07 04:13:51;;;;;;;16.57;14.77;;;14.80;99.90;;;;;;5013840;28;20461;-81
2023/05/07 04:16:19;;;;;;;16.83;15.10;;;14.80;99.90;;;;;;5017952;28;20457;-81
2023/05/07 04:18:46;;;;;;;16.07;14.40;;;14.80;99.90;;;;;;5016120;28;20492;-77
2023/05/07 04:21:16;;;;;;;16.47;14.77;;;14.80;99.90;;;;;;5012715;28;20486;-81
2023/05/07 04:23:43;;;;;;;16.93;15.07;;;14.80;99.90;;;;;;5010641;28;20838;-80
2023/05/07 04:26:10;;;;;;;15.40;13.90;;;14.80;99.90;;;;;;5016960;28;20556;-81
2023/05/07 04:28:37;;;;;;;17.63;15.87;;;14.80;99.90;;;;;;5017507;28;20481;-81
2023/05/07 04:31:04;;;;;;;18.13;16.30;;;14.80;99.90;;;;;;5005618;28;20573;-81
2023/05/07 04:33:33;;;;;;;16.30;14.60;;;14.80;99.90;;;;;;5009182;28;20457;-81
2023/05/07 04:36:02;;;;;;;15.03;13.53;;;14.80;99.90;;;;;;5015980;28;20469;-81
2023/05/07 04:38:29;;;;;;;14.70;13.10;;;14.90;99.90;;;;;;5017522;28;21095;-81
2023/05/07 04:40:56;;;;;;;17.27;14.50;;;14.90;99.90;;;;;;5009020;28;20569;-80
2023/05/07 04:43:23;;;;;;;15.67;14.07;;;15.00;99.90;;;;;;5013197;28;20477;-78
2023/05/07 04:45:51;;;;;;;16.33;14.50;;;15.00;99.90;;;;;;5022044;28;20862;-80
2023/05/07 04:48:19;;;;;;;14.87;13.23;;;15.00;99.90;;;;;;5017772;28;20446;-81
2023/05/07 04:50:48;;;;;;;16.97;15.17;;;15.10;99.90;;;;;;5011630;28;20479;-82
2023/05/07 04:53:15;;;;;;;17.43;14.17;;;15.20;99.90;;;;;;5006906;28;20457;-81
2023/05/07 04:55:42;;;;;;;15.90;14.20;;;15.30;99.90;;;;;;5011988;28;20461;-81
2023/05/07 04:58:09;;;;;;;15.30;13.90;;;15.30;99.90;;;;;;4999553;28;20479;-80
2023/05/07 05:00:36;;;;;;;14.07;12.63;;;15.30;99.90;;;;;;5018991;28;20994;-82
2023/05/07 05:03:03;;;;;;;15.43;13.83;;;15.30;99.90;;;;;;5018933;28;20459;-79
2023/05/07 05:05:30;;;;;;;14.27;12.87;;;15.50;99.90;;;;;;5021154;28;20453;-81
2023/05/07 05:07:58;;;;;;;14.83;13.33;;;15.60;99.90;;;;;;5020910;28;20522;-80
2023/05/07 05:10:25;;;;;;;12.50;11.23;;;15.60;99.90;;;;;;5001260;28;20555;-81
2023/05/07 05:12:52;;;;;;;11.70;10.50;;;15.60;99.90;;;;;;5006475;28;20500;-80
2023/05/07 05:15:19;;;;;;;14.23;12.73;;;15.70;99.90;;;;;;5020599;28;20458;-81
2023/05/07 05:17:45;;;;;;;12.50;11.30;;;15.80;99.90;;;;;;5024690;28;21023;-80
2023/05/07 05:20:12;;;;;;;12.73;10.53;;;15.80;99.90;;;;;;5014048;28;20553;-82
2023/05/07 05:22:39;;;;;;;13.53;9.70;;;15.90;99.90;;;;;;5007445;28;20454;-81
2023/05/07 05:25:08;;;;;;;10.80;9.83;;;15.90;99.90;;;;;;5008479;28;20538;-80
2023/05/07 05:27:35;;;;;;;10.50;9.40;;;16.00;99.90;;;;;;5012071;28;20485;-81
2023/05/07 05:30:02;;;;;;;9.77;8.87;;;16.10;99.90;;;;;;5017658;28;20832;-80
2023/05/07 05:32:29;;;;;;;9.43;8.43;;;16.20;99.90;;;;;;5021350;28;20449;-81
2023/05/07 05:34:56;;;;;;;9.40;8.50;;;16.30;99.90;;;;;;5001044;28;20481;-81
2023/05/07 05:37:23;;;;;;;8.33;7.53;;;16.30;99.90;;;;;;5037832;28;20453;-81
2023/05/07 05:39:50;;;;;;;8.77;7.87;;;16.30;99.90;;;;;;5027831;28;20485;-81
2023/05/07 05:42:18;;;;;;;8.73;7.53;;;16.40;99.90;;;;;;5017569;28;20474;-81
2023/05/07 05:44:45;;;;;;;7.50;6.80;;;16.50;99.90;;;;;;5015672;28;20537;-80
2023/05/07 05:47:11;;;;;;;10.63;7.10;;;16.50;99.90;;;;;;5028030;28;20477;-80
2023/05/07 05:49:38;;;;;;;5.90;5.30;;;16.50;99.90;;;;;;5019467;28;20451;-82
2023/05/07 05:52:05;;;;;;;7.40;6.20;;;16.50;99.90;;;;;;5017468;28;20557;-80
2023/05/07 05:54:32;;;;;;;8.27;5.87;;;16.50;99.90;;;;;;5015434;28;20460;-81
2023/05/07 05:56:59;;;;;;;7.30;5.77;;;16.50;99.90;;;;;;5017930;28;20447;-79
2023/05/07 05:59:27;;;;;;;6.63;6.07;;;16.50;99.90;;;;;;5005348;28;20493;-79
2023/05/07 06:01:54;;;;;;;6.10;4.80;;;16.70;99.90;;;;;;5014579;28;20545;-78
2023/05/07 06:04:21;;;;;;;5.37;4.87;;;16.80;99.90;;;;;;5014411;28;20454;-80
2023/05/07 06:06:47;;;;;;;5.03;4.60;;;16.90;99.90;;;;;;5014840;28;20469;-78
2023/05/07 06:09:14;;;;;;;3.83;3.43;;;17.10;99.90;;;;;;5012021;28;20832;-80
2023/05/07 06:11:41;;;;;;;4.40;4.00;;;17.20;99.90;;;;;;5014256;28;20482;-78
2023/05/07 06:14:08;;;;;;;4.00;3.60;;;17.30;99.90;;;;;;5010551;28;20515;-78
2023/05/07 06:16:37;;;;;;;4.40;4.00;;;17.60;99.90;;;;;;5008251;28;20538;-79
2023/05/07 06:19:04;;;;;;;4.90;3.97;;;17.70;99.90;;;;;;5010430;28;20500;-80
2023/05/07 06:21:31;;;;;;;5.50;3.80;;;17.80;52.30;;;;;;5010827;28;20482;-80
2023/05/07 06:23:58;;;;;;;5.30;3.50;;;18.00;14.10;;;;;;5014758;28;20463;-82
2023/05/07 06:26:25;;;;;;;3.53;2.77;;;18.00;32.60;;;;;;5011897;28;20540;-81
2023/05/07 06:28:52;;;;;;;4.53;3.10;;;18.10;23.40;;;;;;5014431;28;20894;-82
2023/05/07 06:31:21;;;;;;;3.60;2.90;;;18.20;26.30;;;;;;5075448;22;20484;-84
2023/05/07 06:33:50;;;;;;;4.77;3.33;;;18.30;9.20;;;;;;5073355;28;20456;-82
2023/05/07 06:36:16;;;;;;;6.90;3.53;;;18.30;6.00;;;;;;5073943;28;20458;-82
2023/05/07 06:38:43;;;;;;;4.80;2.93;;;18.30;1.00;;;;;;5076012;28;20878;-81
2023/05/07 06:41:10;;;;;;;4.13;3.10;;;18.40;1.00;;;;;;5068345;28;20469;-80
2023/05/07 06:43:37;;;;;;;4.20;3.00;;;18.60;1.00;;;;;;5055029;28;20476;-81
2023/05/07 06:46:04;;;;;;;2.80;2.57;;;18.80;1.00;;;;;;5055112;28;20444;-80
2023/05/07 06:48:30;;;;;;;2.67;2.40;;;18.90;1.00;;;;;;5055950;28;20451;-81
2023/05/07 06:50:59;;;;;;;2.63;2.40;;;19.00;1.00;;;;;;5054095;28;21047;-81
2023/05/07 06:53:26;;;;;;;3.80;2.40;;;19.20;1.00;;;;;;5054153;28;20453;-81
2023/05/07 06:55:53;;;;;;;3.47;2.50;;;19.10;1.00;;;;;;5056953;28;20455;-81
2023/05/07 06:58:20;;;;;;;4.73;3.03;;;19.10;1.00;;;;;;5058383;28;20924;-81
2023/05/07 07:00:47;;;;;;;3.20;2.80;;;19.10;1.00;;;;;;5057067;28;20458;-80
2023/05/07 07:03:14;;;;;;;2.90;2.27;;;19.20;1.00;;;;;;5049151;28;20466;-81
2023/05/07 07:05:41;;;;;;;2.83;2.50;;;19.30;1.00;;;;;;5056961;28;20819;-80
2023/05/07 07:08:10;;;;;;;3.70;2.30;;;19.40;1.00;;;;;;5057853;28;20465;-79
2023/05/07 07:10:37;;;;;;;3.60;2.33;;;19.40;1.00;;;;;;5056652;28;20957;-80
2023/05/07 07:13:04;;;;;;;7.57;2.97;;;19.50;1.00;;;;;;5056427;28;20467;-82
2023/05/07 07:15:31;;;;;;;3.77;2.37;;;19.50;1.00;;;;;;5057290;28;20456;-80
2023/05/07 07:17:58;;;;;;;2.50;2.30;;;19.70;1.00;;;;;;5054983;28;20459;-80
2023/05/07 07:20:24;;;;;;;3.13;2.70;;;19.80;1.00;;;;;;5056490;28;20499;-83
2023/05/07 07:22:51;;;;;;;2.70;2.47;;;19.90;1.00;;;;;;5056690;28;20476;-81
2023/05/07 07:25:19;;;;;;;3.30;2.40;;;19.80;1.00;;;;;;5055006;28;20452;-82
2023/05/07 07:27:46;;;;;;;3.27;2.70;;;19.90;1.00;;;;;;5053996;28;20463;-82
2023/05/07 07:30:13;;;;;;;4.00;2.40;;;20.10;1.00;;;;;;5056185;28;20944;-81
2023/05/07 07:32:40;;;;;;;3.83;2.80;;;20.20;1.00;;;;;;5051708;28;20492;-83
2023/05/07 07:35:08;;;;;;;3.37;3.07;;;20.40;99.90;;;;;;5056165;28;20523;-83
2023/05/07 07:37:34;;;;;;;3.13;2.70;;;20.10;99.90;;;;;;5058421;28;20460;-82
2023/05/07 07:40:01;;;;;;;4.10;3.07;;;20.30;99.90;;;;;;5046010;28;20500;-82
2023/05/07 07:42:30;;;;;;;4.00;3.10;;;20.20;99.90;;;;;;5036520;28;20532;-82
2023/05/07 07:44:57;;;;;;;3.10;2.80;;;20.10;99.90;;;;;;5047403;28;20460;-81
2023/05/07 07:47:24;;;;;;;3.90;3.20;;;20.10;1.00;;;;;;5057141;28;20448;-83
2023/05/07 07:49:51;;;;;;;4.60;3.80;;;20.20;99.90;;;;;;5048461;28;20455;-82
2023/05/07 07:52:17;;;;;;;4.70;2.90;;;20.30;1.00;;;;;;5037910;28;20476;-81
2023/05/07 07:54:45;;;;;;;7.37;5.43;;;20.60;99.90;;;;;;5044293;28;20535;-83
2023/05/07 07:57:11;;;;;;;5.03;4.40;;;20.80;99.90;;;;;;5057997;28;20533;-82
2023/05/07 07:59:42;;;;;;;4.50;3.17;;;20.80;99.90;;;;;;5052530;28;20489;-80
2023/05/07 08:02:12;;;;;;;4.43;3.60;;;21.40;99.90;;;;;;5038325;28;20480;-83
2023/05/07 08:04:38;;;;;;;4.37;3.63;;;21.60;99.90;;;;;;5041968;28;20456;-82
2023/05/07 08:07:05;;;;;;;4.40;4.00;;;21.60;61.20;;;;;;5056922;28;20459;-81
2023/05/07 08:09:32;;;;;;;5.13;4.63;;;21.40;56.20;;;;;;5052593;28;20449;-82
2023/05/07 08:11:59;;;;;;;6.50;4.73;;;21.20;99.90;;;;;;5036442;28;20479;-81
2023/05/07 08:14:26;;;;;;;4.40;4.00;;;21.00;99.90;;;;;;5038913;28;20467;-82
2023/05/07 08:16:54;;;;;;;5.27;4.57;;;21.00;99.90;;;;;;5075421;28;20447;-83
2023/05/07 08:19:21;;;;;;;4.83;4.40;;;20.90;99.90;;;;;;5056489;28;20590;-83
2023/05/07 08:21:48;;;;;;;5.07;3.90;;;20.60;99.90;;;;;;5042418;28;20476;-82
2023/05/07 08:24:15;;;;;;;6.17;3.67;;;20.80;99.90;;;;;;5036222;28;20511;-80
2023/05/07 08:26:42;;;;;;;6.23;3.50;;;21.00;99.90;;;;;;5046236;28;20482;-83
2023/05/07 08:29:09;;;;;;;3.57;2.90;;;20.90;99.90;;;;;;5053570;28;20448;-80
2023/05/07 08:31:36;;;;;;;3.70;3.13;;;21.10;99.90;;;;;;5049724;28;20479;-80
2023/05/07 08:34:05;;;;;;;6.20;4.53;;;21.30;99.90;;;;;;5060778;28;20474;-81
2023/05/07 08:36:31;;;;;;;3.93;3.20;;;21.50;1.00;;;;;;5065880;28;20528;-80
2023/05/07 08:38:58;;;;;;;3.67;3.37;;;21.60;92.20;;;;;;5082475;28;20490;-80
2023/05/07 08:41:25;;;;;;;4.57;2.90;;;22.10;1.00;;;;;;5073101;28;20507;-79
2023/05/07 08:43:52;;;;;;;4.53;3.97;;;22.50;99.90;;;;;;5072821;28;20494;-81
2023/05/07 08:46:20;;;;;;;4.23;3.83;;;22.40;1.00;;;;;;5066164;28;20458;-81
2023/05/07 08:48:49;;;;;;;4.37;3.67;;;22.70;45.80;;;;;;5065421;28;20474;-81
2023/05/07 08:51:19;;;;;;;4.03;3.50;;;23.10;1.00;;;;;;5057935;28;20476;-81
2023/05/07 08:53:48;;;;;;;5.90;4.03;;;23.70;1.00;;;;;;5047345;28;20450;-81
2023/05/07 08:56:16;;;;;;;4.73;3.23;;;24.20;1.00;;;;;;5055227;28;20477;-81
2023/05/07 08:58:44;;;;;;;7.00;3.93;;;24.60;1.00;;;;;;5068207;28;20451;-81
2023/05/07 09:01:14;;;;;;;4.03;3.57;;;24.90;99.90;;;;;;5069015;28;20489;-83
2023/05/07 09:03:42;;;;;;;4.90;3.83;;;25.20;99.90;;;;;;5060622;28;20721;-82
2023/05/07 09:06:10;;;;;;;7.20;3.53;;;24.70;99.90;;;;;;5068067;28;21009;-82
2023/05/07 09:08:38;;;;;;;7.23;3.20;;;24.80;33.20;;;;;;5061805;28;20471;-83
2023/05/07 09:11:05;;;;;;;3.47;3.07;;;24.50;99.90;;;;;;5056895;28;20555;-83
2023/05/07 09:13:32;;;;;;;4.30;3.40;;;24.20;80.00;;;;;;5060453;28;20456;-82
2023/05/07 09:15:59;;;;;;;4.50;3.67;;;24.10;99.90;;;;;;5061148;28;20639;-82
2023/05/07 09:18:26;;;;;;;6.17;4.50;;;23.90;99.90;;;;;;5060487;28;20487;-81
2023/05/07 09:20:52;;;;;;;4.67;4.10;;;23.70;99.90;;;;;;5061031;28;20498;-82
2023/05/07 09:23:19;;;;;;;4.20;3.63;;;23.70;99.90;;;;;;5050815;28;20458;-82
2023/05/07 09:25:47;;;;;;;3.83;3.50;;;23.80;1.00;;;;;;5047810;28;20457;-82
2023/05/07 09:28:14;;;;;;;4.00;3.40;;;25.20;99.90;;;;;;5049672;28;20459;-81
2023/05/07 09:30:41;;;;;;;4.23;3.80;;;25.80;1.00;;;;;;5071431;28;20527;-81
2023/05/07 09:33:08;;;;;;;5.40;4.40;;;26.00;1.00;;;;;;5059665;28;20464;-83
2023/05/07 09:35:35;;;;;;;3.83;3.53;;;27.00;1.00;;;;;;5062025;28;20507;-83
2023/05/07 09:38:02;;;;;;;6.10;3.90;;;27.80;1.00;;;;;;5059885;28;20551;-84
2023/05/07 09:40:31;;;;;;;6.07;4.17;;;28.30;1.00;;;;;;5072353;28;20482;-81
2023/05/07 09:43:11;;;;;;;5.30;3.90;;;28.40;1.00;;;;;;5080779;28;20471;-82
2023/05/07 09:45:38;;;;;;;6.40;4.40;;;29.70;1.00;;;;;;5064960;28;20451;-82
2023/05/07 09:48:06;;;;;;;3.87;3.47;;;29.90;1.00;;;;;;5055439;28;20471;-81
2023/05/07 09:50:38;;;;;;;4.03;3.63;;;30.00;1.00;;;;;;5079478;28;20446;-81
2023/05/07 09:53:05;;;;;;;4.90;4.40;;;29.60;1.00;;;;;;5066540;28;20526;-86
2023/05/07 09:55:32;;;;;;;4.63;3.80;;;29.30;1.00;;;;;;5061832;28;20979;-81
2023/05/07 09:58:02;;;;;;;3.97;3.57;;;29.30;1.00;;;;;;5064329;28;20458;-81
2023/05/07 10:00:30;;;;;;;5.60;4.10;;;29.00;1.00;;;;;;5064015;28;20534;-83
2023/05/07 10:02:59;;;;;;;3.83;3.10;;;29.60;1.00;;;;;;5059302;28;21007;-82
2023/05/07 10:05:27;;;;;;;4.63;4.23;;;29.60;1.00;;;;;;5060285;28;20460;-82
2023/05/07 10:07:57;;;;;;;4.30;3.50;;;29.30;1.00;;;;;;5060625;28;20969;-83
2023/05/07 10:10:25;;;;;;;5.33;4.57;;;29.10;99.90;;;;;;5057342;28;20488;-83
2023/05/07 10:12:53;;;;;;;5.23;3.70;;;29.20;99.90;;;;;;5047113;28;20478;-81
2023/05/07 10:15:22;;;;;;;3.83;3.43;;;29.20;99.90;;;;;;5054974;28;20463;-83
2023/05/07 10:17:50;;;;;;;3.50;2.97;;;29.20;99.90;;;;;;5064933;28;20454;-82
2023/05/07 10:20:17;;;;;;;3.20;2.70;;;29.30;99.90;;;;;;5059405;28;20472;-84
2023/05/07 10:22:46;;;;;;;3.20;2.60;;;29.90;99.90;;;;;;5047107;28;20637;-85
2023/05/07 10:25:18;;;;;;;4.90;2.93;;;30.10;99.90;;;;;;5049759;28;20463;-82
2023/05/07 10:27:49;;;;;;;3.37;2.10;;;30.40;99.90;;;;;;5059784;28;20465;-84
2023/05/07 10:30:28;;;;;;;3.67;2.23;;;31.00;99.90;;;;;;5061291;28;20527;-84
2023/05/07 10:32:57;;;;;;;4.10;2.07;;;32.30;99.90;;;;;;5046621;28;20933;-82
2023/05/07 10:35:30;;;;;;;3.60;2.63;;;33.10;99.90;;;;;;5045525;28;20468;-83
2023/05/07 10:37:57;;;;;;;3.93;2.60;;;33.80;99.90;;;;;;5056429;28;20483;-83
2023/05/07 10:40:24;;;;;;;3.60;2.73;;;33.00;99.90;;;;;;5071998;28;20488;-82
2023/05/07 10:42:59;;;;;;;4.30;3.23;;;31.90;99.90;;;;;;5066250;28;20942;-86
2023/05/07 10:45:28;;;;;;;5.70;3.10;;;30.40;99.90;;;;;;5059783;28;20521;-80
2023/05/07 10:48:09;;;;;;;3.20;2.40;;;29.50;99.90;;;;;;5058643;28;20455;-83
2023/05/07 10:50:36;;;;;;;3.80;2.80;;;28.70;99.90;;;;;;5044694;28;20454;-81
2023/05/07 10:53:24;;;;;;;4.37;2.97;;;28.80;99.90;;;;;;5055952;28;20444;-83
2023/05/07 10:55:51;;;;;;;5.97;2.93;;;28.00;99.90;;;;;;5075905;28;20792;-82
2023/05/07 10:58:26;;;;;;;4.50;3.47;;;28.20;99.90;;;;;;5056325;28;20839;-83
2023/05/07 11:00:57;;;;;;;5.77;3.83;;;28.40;99.90;;;;;;5048759;28;20527;-82
2023/05/07 11:03:24;;;;;;;5.63;3.40;;;28.60;99.90;;;;;;5060371;28;20444;-82
2023/05/07 11:06:10;;;;;;;4.20;3.60;;;30.10;99.90;;;;;;5062714;28;20464;-82
2023/05/07 11:08:57;;;;;;;4.00;3.53;;;32.80;99.90;;;;;;5058303;28;20811;-86
2023/05/07 11:11:46;;;;;;;4.10;3.20;;;33.50;99.90;;;;;;5064580;28;20467;-82
2023/05/07 11:14:12;;;;;;;3.20;2.90;;;32.70;99.90;;;;;;5059413;28;20460;-82
2023/05/07 11:16:42;;;;;;;5.53;3.63;;;32.10;99.90;;;;;;5056646;28;21600;-82
2023/05/07 11:19:10;;;;;;;4.13;3.20;;;32.00;99.90;;;;;;5040413;28;20555;-83
2023/05/07 11:21:38;;;;;;;4.93;4.23;;;32.30;99.90;;;;;;5038520;28;20572;-82
2023/05/07 11:24:07;;;;;;;4.37;3.70;;;31.10;99.90;;;;;;5038693;28;21020;-82
2023/05/07 11:26:44;;;;;;;5.70;2.97;;;31.20;99.90;;;;;;5058905;28;20480;-86
2023/05/07 11:29:18;;;;;;;4.50;3.63;;;31.10;99.90;;;;;;5053893;28;20463;-82
2023/05/07 11:31:50;;;;;;;3.30;2.87;;;31.30;99.90;;;;;;5043005;28;20475;-84
2023/05/07 11:34:22;;;;;;;2.97;2.30;;;32.00;99.90;;;;;;5044605;28;20464;-83
2023/05/07 11:36:50;;;;;;;4.40;2.40;;;32.20;99.90;;;;;;5051779;28;20517;-83
2023/05/07 11:39:31;;;;;;;3.90;3.30;;;32.00;99.90;;;;;;5058242;28;20483;-84
2023/05/07 11:41:58;;;;;;;4.27;3.87;;;31.50;99.90;;;;;;5059307;28;20548;-82
2023/05/07 11:44:25;;;;;;;3.40;2.70;;;30.10;99.90;;;;;;5059232;28;20897;-84
2023/05/07 11:46:53;;;;;;;3.97;3.43;;;30.10;99.90;;;;;;5057921;28;20555;-83
2023/05/07 11:49:20;;;;;;;3.80;3.40;;;30.20;99.90;;;;;;5058996;28;20460;-82
2023/05/07 11:51:49;;;;;;;4.43;3.23;;;30.40;99.90;;;;;;5057418;28;20821;-81
2023/05/07 11:54:19;;;;;;;4.53;3.63;;;31.90;99.90;;;;;;5040894;28;20487;-82
2023/05/07 11:56:47;;;;;;;4.63;4.03;;;33.80;99.90;;;;;;5044328;28;20453;-83
2023/05/07 11:59:20;;;;;;;4.40;3.63;;;33.10;99.90;;;;;;5053249;28;20444;-82
2023/05/07 12:01:48;;;;;;;3.60;3.20;;;32.40;99.90;;;;;;5054955;28;20492;-83
2023/05/07 12:04:21;;;;;;;3.93;3.53;;;31.90;99.90;;;;;;5045504;28;20443;-83
2023/05/07 12:06:47;;;;;;;4.77;4.27;;;32.40;99.90;;;;;;5055781;28;20464;-84
2023/05/07 12:09:14;;;;;;;4.43;3.80;;;32.10;99.90;;;;;;5040692;28;21050;-83
2023/05/07 12:11:46;;;;;;;5.80;5.30;;;32.40;99.90;;;;;;5036106;28;20469;-83
2023/05/07 12:14:13;;;;;;;5.30;4.63;;;31.80;99.90;;;;;;5048920;28;20459;-82
2023/05/07 12:16:41;;;;;;;4.03;3.60;;;31.60;99.90;;;;;;5056367;28;20458;-83
2023/05/07 12:19:12;;;;;;;5.03;4.53;;;32.10;99.90;;;;;;5051859;28;20467;-81
2023/05/07 12:21:41;;;;;;;4.87;4.03;;;32.80;99.90;;;;;;5055291;28;20484;-83
2023/05/07 12:24:09;;;;;;;4.50;3.80;;;32.90;99.90;;;;;;5051127;28;20448;-81
2023/05/07 12:26:42;;;;;;;5.47;3.50;;;32.70;99.90;;;;;;5054128;28;20452;-82
2023/05/07 12:29:09;;;;;;;4.90;4.33;;;32.80;99.90;;;;;;5054118;28;20974;-83
2023/05/07 12:31:35;;;;;;;5.43;4.77;;;32.50;99.90;;;;;;5053573;28;20499;-83
2023/05/07 12:34:03;;;;;;;5.67;3.90;;;31.40;99.90;;;;;;5053808;28;20458;-81
2023/05/07 12:36:38;;;;;;;5.37;4.70;;;30.90;99.90;;;;;;5054484;28;20904;-82
2023/05/07 12:39:08;;;;;;;5.57;5.00;;;30.20;99.90;;;;;;5055058;28;20521;-83
2023/05/07 12:41:37;;;;;;;5.67;4.80;;;29.30;99.90;;;;;;5049669;28;20487;-83
2023/05/07 12:44:06;;;;;;;5.33;4.80;;;28.60;99.90;;;;;;5063321;28;20544;-83